createdAt,value
2022-08-17T00:02:26.467Z,99285.16
2022-08-17T00:04:55.252Z,99269.97
2022-08-17T00:07:22.499Z,99281.63
2022-08-17T00:09:50.223Z,99273.50
2022-08-17T00:12:40.538Z,99278.91
2022-08-17T00:15:04.963Z,99275.84
2022-08-17T00:17:32.657Z,99275.25
2022-08-17T00:20:00.155Z,99278.16
2022-08-17T00:22:34.933Z,99268.06
2022-08-17T00:25:09.787Z,99271.28
2022-08-17T00:27:36.857Z,99271.03
2022-08-17T00:30:06.674Z,99262.03
2022-08-17T00:33:12.481Z,99260.63
2022-08-17T00:35:27.956Z,99261.28
2022-08-17T00:37:55.663Z,99265.13
2022-08-17T00:40:22.433Z,99270.09
2022-08-17T00:42:53.195Z,99265.13
2022-08-17T00:45:20.359Z,99261.59
2022-08-17T00:47:47.428Z,99272.19
2022-08-17T00:50:16.786Z,99274.22
2022-08-17T00:52:55.150Z,99273.91
2022-08-17T00:55:23.462Z,99270.00
2022-08-17T00:57:55.246Z,99261.75
2022-08-17T01:00:26.735Z,99261.47
2022-08-17T01:02:58.050Z,99259.06
2022-08-17T01:05:29.938Z,99261.16
2022-08-17T01:07:57.205Z,99258.22
2022-08-17T01:10:58.416Z,99256.25
2022-08-17T01:13:23.321Z,99249.09
2022-08-17T01:15:56.745Z,99253.84
2022-08-17T01:18:25.014Z,99243.78
2022-08-17T01:20:53.883Z,99248.44
2022-08-17T01:23:23.269Z,99251.28
2022-08-17T01:25:51.993Z,99254.22
2022-08-17T01:28:52.490Z,99254.31
2022-08-17T01:31:08.421Z,99248.75
2022-08-17T01:33:35.493Z,99249.31
2022-08-17T01:36:03.510Z,99252.25
2022-08-17T01:38:31.755Z,99250.69
2022-08-17T01:41:06.999Z,99252.31
2022-08-17T01:43:45.457Z,99255.88
2022-08-17T01:46:16.923Z,99254.09
2022-08-17T01:48:47.210Z,99251.19
2022-08-17T01:51:15.450Z,99256.34
2022-08-17T01:53:45.459Z,99257.03
2022-08-17T01:56:15.530Z,99255.38
2022-08-17T01:58:42.921Z,99254.91
2022-08-17T02:01:10.775Z,99254.34
2022-08-17T02:03:38.111Z,99255.38
2022-08-17T02:06:06.309Z,99260.31
2022-08-17T02:09:02.245Z,99256.03
2022-08-17T02:11:34.478Z,99264.59
2022-08-17T02:14:03.106Z,99258.81
2022-08-17T02:16:36.894Z,99254.06
2022-08-17T02:19:10.264Z,99255.56
2022-08-17T02:21:38.016Z,99258.03
2022-08-17T02:24:06.744Z,99265.50
2022-08-17T02:26:33.657Z,99264.66
2022-08-17T02:29:00.506Z,99257.38
2022-08-17T02:31:27.198Z,99264.06
2022-08-17T02:34:03.363Z,99260.09
2022-08-17T02:36:33.782Z,99266.59
2022-08-17T02:39:06.490Z,99268.16
2022-08-17T02:41:33.542Z,99275.06
2022-08-17T02:44:01.035Z,99268.03
2022-08-17T02:46:28.300Z,99268.31
2022-08-17T02:48:55.035Z,99276.78
2022-08-17T02:51:22.090Z,99270.78
2022-08-17T02:53:48.926Z,99271.00
2022-08-17T02:56:15.871Z,99276.00
2022-08-17T02:58:42.538Z,99267.69
2022-08-17T03:01:09.930Z,99271.59
2022-08-17T03:06:07.591Z,99268.53
2022-08-17T03:08:34.639Z,99270.59
2022-08-17T03:13:30.759Z,99273.72
2022-08-17T03:15:57.522Z,99273.75
2022-08-17T03:18:26.398Z,99268.56
2022-08-17T03:20:59.061Z,99272.13
2022-08-17T03:23:27.298Z,99263.56
2022-08-17T03:25:55.846Z,99264.84
2022-08-17T03:28:24.292Z,99268.44
2022-08-17T03:30:52.152Z,99270.91
2022-08-17T03:33:21.448Z,99273.22
2022-08-17T03:35:48.459Z,99270.13
2022-08-17T03:38:17.022Z,99276.81
2022-08-17T03:40:57.509Z,99273.66
2022-08-17T03:43:32.470Z,99268.56
2022-08-17T03:46:34.138Z,99273.25
2022-08-17T03:49:26.111Z,99282.72
2022-08-17T03:52:15.597Z,99281.41
2022-08-17T03:55:04.361Z,99274.16
2022-08-17T03:57:31.382Z,99277.44
2022-08-17T04:00:04.797Z,99265.53
2022-08-17T04:02:40.303Z,99265.06
2022-08-17T04:05:07.417Z,99268.38
2022-08-17T04:07:34.062Z,99265.25
2022-08-17T04:10:00.767Z,99257.97
2022-08-17T04:12:30.723Z,99267.34
2022-08-17T04:14:57.746Z,99266.31
2022-08-17T04:22:30.069Z,99272.78
2022-08-17T04:25:14.997Z,99265.44
2022-08-17T04:27:41.688Z,99270.31
2022-08-17T04:30:09.097Z,99278.59
2022-08-17T04:33:04.465Z,99289.94
2022-08-17T04:35:41.685Z,99301.06
2022-08-17T04:38:11.968Z,99303.94
2022-08-17T04:40:57.559Z,99314.75
2022-08-17T04:43:25.633Z,99318.25
2022-08-17T04:45:58.234Z,99317.88
2022-08-17T04:48:36.277Z,99324.97
2022-08-17T04:51:09.856Z,99329.47
2022-08-17T04:54:54.382Z,99334.78
2022-08-17T04:57:21.044Z,99325.72
2022-08-17T04:59:47.738Z,99328.41
2022-08-17T05:02:14.839Z,99326.13
2022-08-17T05:04:41.748Z,99332.53
2022-08-17T05:07:08.519Z,99331.47
2022-08-17T05:09:35.259Z,99338.13
2022-08-17T05:12:02.380Z,99335.59
2022-08-17T05:14:33.437Z,99337.69
2022-08-17T05:21:30.824Z,99353.88
2022-08-17T05:23:58.553Z,99360.09
2022-08-17T05:26:29.404Z,99352.22
2022-08-17T05:28:59.520Z,99357.56
2022-08-17T05:31:27.035Z,99354.59
2022-08-17T05:33:53.746Z,99350.81
2022-08-17T05:36:42.633Z,99358.31
2022-08-17T05:39:07.500Z,99373.22
2022-08-17T05:41:34.221Z,99357.19
2022-08-17T05:44:00.874Z,99348.44
2022-08-17T05:46:36.396Z,99352.16
2022-08-17T05:49:07.781Z,99347.88
2022-08-17T05:51:48.800Z,99349.59
2022-08-17T05:54:54.412Z,99349.91
2022-08-17T05:57:53.561Z,99348.97
2022-08-17T06:00:32.124Z,99349.88
2022-08-17T06:03:27.493Z,99348.03
2022-08-17T06:06:25.361Z,99347.22
2022-08-17T06:09:00.807Z,99347.88
2022-08-17T06:11:39.283Z,99357.25
2022-08-17T06:18:31.807Z,99341.94
2022-08-17T06:21:01.007Z,99345.00
2022-08-17T06:23:35.184Z,99346.34
2022-08-17T06:26:05.833Z,99340.34
2022-08-17T06:28:47.403Z,99346.28
2022-08-17T06:31:22.193Z,99348.00
2022-08-17T06:33:49.352Z,99348.38
2022-08-17T06:36:49.697Z,99339.25
2022-08-17T06:39:44.521Z,99342.44
2022-08-17T06:43:02.817Z,99354.53
2022-08-17T06:45:27.721Z,99355.00
2022-08-17T06:48:15.581Z,99355.16
2022-08-17T06:50:45.047Z,99354.03
2022-08-17T06:53:22.540Z,99362.22
2022-08-17T06:55:58.009Z,99365.16
2022-08-17T06:58:29.683Z,99374.09
2022-08-17T07:01:01.001Z,99367.91
2022-08-17T07:03:44.472Z,99372.38
2022-08-17T07:06:13.945Z,99374.13
2022-08-17T07:08:52.930Z,99375.16
2022-08-17T07:11:27.180Z,99378.97
2022-08-17T07:13:57.925Z,99372.41
2022-08-17T07:16:28.795Z,99374.44
2022-08-17T07:18:57.219Z,99369.75
2022-08-17T07:21:50.286Z,99369.16
2022-08-17T07:28:23.157Z,99344.91
2022-08-17T07:30:53.794Z,99342.44
2022-08-17T07:33:27.665Z,99344.09
2022-08-17T07:35:57.276Z,99340.09
2022-08-17T07:38:28.907Z,99342.31
2022-08-17T07:41:02.114Z,99352.13
2022-08-17T07:43:37.929Z,99358.59
2022-08-17T07:46:34.016Z,99356.25
2022-08-17T07:49:00.704Z,99361.44
2022-08-17T07:51:29.100Z,99359.31
2022-08-17T07:54:13.530Z,99359.53
2022-08-17T07:57:03.810Z,99364.25
2022-08-17T07:59:34.301Z,99362.03
2022-08-17T08:02:06.139Z,99362.63
2022-08-17T08:07:48.062Z,99359.44
2022-08-17T08:10:32.320Z,99371.50
2022-08-17T08:13:15.336Z,99367.78
2022-08-17T08:16:16.806Z,99377.81
2022-08-17T08:18:55.327Z,99382.91
2022-08-17T08:21:32.140Z,99387.41
2022-08-17T08:24:33.434Z,99392.31
2022-08-17T08:31:52.194Z,99406.72
2022-08-17T08:34:44.436Z,99403.34
2022-08-17T08:37:49.907Z,99404.41
2022-08-17T08:40:35.531Z,99404.44
2022-08-17T08:43:22.010Z,99414.94
2022-08-17T08:46:21.859Z,99413.56
2022-08-17T08:49:12.273Z,99416.53
2022-08-17T08:51:55.726Z,99415.84
2022-08-17T08:58:59.524Z,99419.00
2022-08-17T09:01:47.792Z,99414.28
2022-08-17T09:04:24.782Z,99415.84
2022-08-17T09:07:29.558Z,99398.72
2022-08-17T09:10:24.592Z,99392.97
2022-08-17T09:13:09.601Z,99397.78
2022-08-17T09:16:00.178Z,99408.88
2022-08-17T09:18:59.260Z,99402.28
2022-08-17T09:21:48.551Z,99402.50
2022-08-17T09:24:25.643Z,99412.81
2022-08-17T09:27:30.630Z,99411.63
2022-08-17T09:30:04.805Z,99408.44
2022-08-17T09:32:38.110Z,99415.28
2022-08-17T09:35:14.388Z,99418.47
2022-08-17T09:37:47.023Z,99418.00
2022-08-17T09:40:16.108Z,99415.81
2022-08-17T09:42:49.258Z,99418.34
2022-08-17T09:45:42.530Z,99417.53
2022-08-17T09:48:37.678Z,99404.03
2022-08-17T09:51:22.455Z,99409.22
2022-08-17T09:53:50.293Z,99401.59
2022-08-17T09:56:43.768Z,99398.31
2022-08-17T09:59:38.723Z,99395.44
2022-08-17T10:02:33.327Z,99414.66
2022-08-17T10:05:04.739Z,99414.94
2022-08-17T10:07:44.472Z,99410.22
2022-08-17T10:10:56.266Z,99421.50
2022-08-17T10:13:36.157Z,99411.63
2022-08-17T10:16:30.944Z,99413.66
2022-08-17T10:19:27.793Z,99412.22
2022-08-17T10:22:34.883Z,99416.25
2022-08-17T10:25:54.531Z,99415.06
2022-08-17T10:28:30.023Z,99414.00
2022-08-17T10:34:18.890Z,99419.88
2022-08-17T10:36:56.510Z,99424.28
2022-08-17T10:39:34.242Z,99430.50
2022-08-17T10:42:33.221Z,99442.28
2022-08-17T10:45:07.147Z,99441.56
2022-08-17T10:48:04.310Z,99453.59
2022-08-17T10:50:57.654Z,99456.28
2022-08-17T10:53:32.552Z,99455.00
2022-08-17T10:56:13.201Z,99473.16
2022-08-17T10:58:49.603Z,99463.75
2022-08-17T11:01:17.277Z,99458.44
2022-08-17T11:03:53.407Z,99464.56
2022-08-17T11:06:32.754Z,99475.53
2022-08-17T11:09:09.509Z,99487.66
2022-08-17T11:12:01.316Z,99496.50
2022-08-17T11:15:13.331Z,99502.16
2022-08-17T11:18:01.896Z,99504.63
2022-08-17T11:20:39.343Z,99514.78
2022-08-17T11:23:29.261Z,99503.13
2022-08-17T11:26:01.802Z,99494.91
2022-08-17T11:28:35.768Z,99485.47
2022-08-17T11:31:09.219Z,99492.53
2022-08-17T11:33:36.638Z,99498.91
2022-08-17T11:36:31.631Z,99494.66
2022-08-17T11:39:20.060Z,99504.06
2022-08-17T11:41:57.511Z,99515.31
2022-08-17T11:44:51.410Z,99516.94
2022-08-17T11:47:53.014Z,99501.41
2022-08-17T11:51:09.175Z,99499.75
2022-08-17T11:53:38.583Z,99508.72
2022-08-17T11:56:10.884Z,99512.47
2022-08-17T11:59:19.677Z,99503.25
2022-08-17T12:01:57.021Z,99507.38
2022-08-17T12:04:32.644Z,99512.81
2022-08-17T12:07:11.331Z,99510.56
2022-08-17T12:09:43.010Z,99516.13
2022-08-17T12:12:14.445Z,99505.28
2022-08-17T12:15:11.132Z,99511.59
2022-08-17T12:17:40.637Z,99520.25
2022-08-17T12:20:15.535Z,99527.72
2022-08-17T12:23:04.401Z,99523.94
2022-08-17T12:26:22.595Z,99527.72
2022-08-17T12:28:57.361Z,99515.00
2022-08-17T12:31:31.413Z,99509.13
2022-08-17T12:34:00.351Z,99514.06
2022-08-17T12:36:28.629Z,99514.91
2022-08-17T12:39:13.111Z,99498.63
2022-08-17T12:41:47.369Z,99495.09
2022-08-17T12:44:21.608Z,99492.13
2022-08-17T12:47:01.686Z,99497.53
2022-08-17T12:49:40.799Z,99493.41
2022-08-17T12:52:17.175Z,99486.69
2022-08-17T12:54:48.397Z,99474.31
2022-08-17T12:57:24.893Z,99472.91
2022-08-17T12:59:54.919Z,99472.22
2022-08-17T13:02:29.145Z,99455.94
2022-08-17T13:04:58.951Z,99439.41
2022-08-17T13:07:42.439Z,99430.09
2022-08-17T13:10:16.774Z,99422.91
2022-08-17T13:12:43.602Z,99418.41
2022-08-17T13:15:20.753Z,99413.47
2022-08-17T13:18:06.874Z,99411.09
2022-08-17T13:20:34.750Z,99404.75
2022-08-17T13:23:11.425Z,99399.91
2022-08-17T13:25:39.254Z,99398.84
2022-08-17T13:28:05.959Z,99402.63
2022-08-17T13:30:33.507Z,99392.22
2022-08-17T13:33:04.782Z,99389.88
2022-08-17T13:35:49.315Z,99391.88
2022-08-17T13:38:47.211Z,99388.22
2022-08-17T13:41:36.209Z,99386.34
2022-08-17T13:44:29.675Z,99387.16
2022-08-17T13:46:57.487Z,99393.63
2022-08-17T13:49:41.898Z,99395.78
2022-08-17T13:52:52.201Z,99383.13
2022-08-17T13:55:20.085Z,99393.66
2022-08-17T13:58:24.547Z,99387.03
2022-08-17T14:00:51.777Z,99383.88
2022-08-17T14:03:19.758Z,99377.16
2022-08-17T14:05:48.119Z,99368.53
2022-08-17T14:08:16.378Z,99369.72
2022-08-17T14:10:45.170Z,99375.25
2022-08-17T14:13:15.246Z,99374.75
2022-08-17T14:15:54.912Z,99371.34
2022-08-17T14:18:42.007Z,99362.81
2022-08-17T14:21:10.413Z,99348.25
2022-08-17T14:23:37.262Z,99348.94
2022-08-17T14:26:04.437Z,99354.72
2022-08-17T14:28:31.092Z,99346.66
2022-08-17T14:31:00.633Z,99343.47
2022-08-17T14:33:28.446Z,99343.81
2022-08-17T14:35:57.384Z,99332.59
2022-08-17T14:38:24.197Z,99328.00
2022-08-17T14:40:50.922Z,99328.59
2022-08-17T14:43:17.866Z,99322.06
2022-08-17T14:45:44.587Z,99317.81
2022-08-17T14:48:12.446Z,99318.97
2022-08-17T14:50:41.888Z,99320.66
2022-08-17T14:53:11.796Z,99326.19
2022-08-17T14:55:40.671Z,99331.13
2022-08-17T14:58:08.791Z,99338.53
2022-08-17T15:00:38.493Z,99342.66
2022-08-17T15:03:05.664Z,99335.91
2022-08-17T15:05:58.856Z,99338.19
2022-08-17T15:08:25.650Z,99341.94
2022-08-17T15:10:54.344Z,99339.22
2022-08-17T15:13:24.048Z,99343.81
2022-08-17T15:15:51.330Z,99335.66
2022-08-17T15:18:23.182Z,99331.53
2022-08-17T15:20:50.170Z,99338.63
2022-08-17T15:23:19.620Z,99334.25
2022-08-17T15:25:47.944Z,99334.00
2022-08-17T15:28:15.282Z,99325.88
2022-08-17T15:30:45.292Z,99329.97
2022-08-17T15:33:17.399Z,99325.38
2022-08-17T15:35:44.881Z,99329.75
2022-08-17T15:38:12.933Z,99317.78
2022-08-17T15:41:58.114Z,99310.28
2022-08-17T15:44:32.375Z,99302.81
2022-08-17T15:47:02.173Z,99298.78
2022-08-17T15:49:28.905Z,99305.59
2022-08-17T15:51:56.150Z,99291.78
2022-08-17T15:54:23.478Z,99294.50
2022-08-17T15:56:53.884Z,99293.19
2022-08-17T15:59:20.578Z,99292.91
2022-08-17T16:03:13.484Z,99300.84
2022-08-17T16:04:40.216Z,99303.28
2022-08-17T16:07:10.727Z,99301.44
2022-08-17T16:09:38.372Z,99306.59
2022-08-17T16:12:13.375Z,99301.91
2022-08-17T16:14:47.977Z,99293.75
2022-08-17T16:17:50.195Z,99297.63
2022-08-17T16:20:04.724Z,99303.78
2022-08-17T16:22:36.048Z,99308.66
2022-08-17T16:25:08.446Z,99308.56
2022-08-17T16:27:36.163Z,99305.28
2022-08-17T16:30:05.217Z,99292.44
2022-08-17T16:32:32.979Z,99290.75
2022-08-17T16:35:49.441Z,99295.22
2022-08-17T16:38:22.153Z,99286.56
2022-08-17T16:41:45.475Z,99282.13
2022-08-17T16:44:17.244Z,99292.81
2022-08-17T16:46:45.722Z,99295.53
2022-08-17T16:49:24.467Z,99293.66
2022-08-17T17:00:50.620Z,99300.78
2022-08-17T17:03:20.894Z,99299.16
2022-08-17T17:06:16.071Z,99285.59
2022-08-17T17:08:53.792Z,99287.56
2022-08-17T17:11:38.277Z,99288.28
2022-08-17T17:14:11.992Z,99296.81
2022-08-17T17:16:52.905Z,99292.69
2022-08-17T17:19:51.491Z,99286.88
2022-08-17T17:22:42.283Z,99279.50
2022-08-17T17:25:19.813Z,99273.56
2022-08-17T17:28:28.264Z,99271.81
2022-08-17T17:31:16.887Z,99276.19
2022-08-17T17:33:53.731Z,99278.75
2022-08-17T17:36:38.193Z,99275.38
2022-08-17T17:39:10.160Z,99272.75
2022-08-17T17:41:58.551Z,99271.72
2022-08-17T17:44:30.506Z,99270.75
2022-08-17T17:46:59.938Z,99269.09
2022-08-17T17:49:30.442Z,99275.59
2022-08-17T17:52:14.221Z,99269.25
2022-08-17T17:55:02.185Z,99261.34
2022-08-17T17:58:04.154Z,99266.09
2022-08-17T18:00:39.268Z,99260.44
2022-08-17T18:03:35.305Z,99253.75
2022-08-17T18:06:05.179Z,99254.41
2022-08-17T18:08:58.022Z,99257.03
2022-08-17T18:15:50.980Z,99257.09
2022-08-17T18:19:12.980Z,99259.47
2022-08-17T18:21:45.753Z,99268.28
2022-08-17T18:24:13.480Z,99268.28
2022-08-17T18:26:55.264Z,99262.44
2022-08-17T18:34:43.804Z,99264.44
2022-08-17T18:37:10.653Z,99268.22
2022-08-17T18:39:38.240Z,99267.41
2022-08-17T18:42:24.081Z,99270.09
2022-08-17T18:44:54.935Z,99279.34
2022-08-17T18:47:27.629Z,99281.06
2022-08-17T18:50:26.236Z,99279.69
2022-08-17T18:52:55.117Z,99281.22
2022-08-17T18:55:24.692Z,99289.84
2022-08-17T18:57:53.482Z,99295.16
2022-08-17T19:00:41.622Z,99299.41
2022-08-17T19:03:20.306Z,99295.28
2022-08-17T19:05:51.310Z,99296.69
2022-08-17T19:08:33.960Z,99294.22
2022-08-17T19:11:23.758Z,99303.56
2022-08-17T19:14:00.980Z,99303.91
2022-08-17T19:16:32.384Z,99308.97
2022-08-17T19:19:04.995Z,99313.59
2022-08-17T19:21:36.275Z,99310.72
2022-08-17T19:24:19.306Z,99312.03
2022-08-17T19:26:55.059Z,99313.34
2022-08-17T19:29:34.845Z,99308.25
2022-08-17T19:32:04.483Z,99300.25
2022-08-17T19:34:34.579Z,99308.84
2022-08-17T19:37:32.545Z,99306.97
2022-08-17T19:40:29.294Z,99305.53
2022-08-17T19:43:54.670Z,99301.63
2022-08-17T19:46:36.050Z,99304.72
2022-08-17T19:49:07.654Z,99303.31
2022-08-17T19:51:58.264Z,99295.31
2022-08-17T19:54:31.547Z,99298.84
2022-08-17T19:57:17.994Z,99302.69
2022-08-17T19:59:48.707Z,99300.88
2022-08-17T20:02:41.786Z,99304.06
2022-08-17T20:05:13.886Z,99312.50
2022-08-17T20:08:12.304Z,99310.19
2022-08-17T20:10:41.574Z,99309.50
2022-08-17T20:13:15.161Z,99312.31
2022-08-17T20:15:44.182Z,99302.19
2022-08-17T20:18:26.548Z,99299.34
2022-08-17T20:21:20.463Z,99296.03
2022-08-17T20:23:56.167Z,99300.41
2022-08-17T20:26:42.778Z,99322.41
2022-08-17T20:29:40.247Z,99326.88
2022-08-17T20:32:16.918Z,99329.25
2022-08-17T20:34:46.071Z,99319.41
2022-08-17T20:37:12.716Z,99310.06
2022-08-17T20:39:41.630Z,99320.09
2022-08-17T20:42:30.255Z,99323.69
2022-08-17T20:45:01.982Z,99314.31
2022-08-17T20:48:01.189Z,99321.06
2022-08-17T20:50:37.827Z,99319.69
2022-08-17T20:53:08.174Z,99323.00
2022-08-17T20:55:51.156Z,99335.13
2022-08-17T20:58:30.869Z,99338.41
2022-08-17T21:00:58.806Z,99344.53
2022-08-17T21:03:28.614Z,99347.84
2022-08-17T21:06:17.922Z,99340.91
2022-08-17T21:09:03.468Z,99338.19
2022-08-17T21:11:57.061Z,99341.59
2022-08-17T21:14:37.269Z,99342.06
2022-08-17T21:17:14.910Z,99352.75
2022-08-17T21:20:10.973Z,99351.84
2022-08-17T21:23:27.251Z,99362.03
2022-08-17T21:26:30.766Z,99364.72
2022-08-17T21:29:31.211Z,99372.22
2022-08-17T21:31:59.406Z,99368.41
2022-08-17T21:34:32.874Z,99357.13
2022-08-17T21:37:19.742Z,99373.00
2022-08-17T21:40:12.473Z,99369.81
2022-08-17T21:42:48.275Z,99372.78
2022-08-17T21:45:23.657Z,99372.31
2022-08-17T21:49:13.432Z,99376.66
2022-08-17T21:51:59.179Z,99382.25
2022-08-17T21:54:38.774Z,99391.78
2022-08-17T21:57:07.965Z,99395.75
2022-08-17T21:59:38.161Z,99391.22
2022-08-17T22:02:09.863Z,99400.41
2022-08-17T22:04:41.569Z,99392.59
2022-08-17T22:07:11.339Z,99402.97
2022-08-17T22:09:48.798Z,99403.66
2022-08-17T22:12:17.690Z,99397.91
2022-08-17T22:14:56.659Z,99403.72
2022-08-17T22:17:35.353Z,99404.34
2022-08-17T22:20:17.275Z,99397.88
2022-08-17T22:23:08.437Z,99407.88
2022-08-17T22:25:40.934Z,99392.50
2022-08-17T22:28:10.136Z,99391.22
2022-08-17T22:31:02.065Z,99391.31
2022-08-17T22:33:39.948Z,99393.56
2022-08-17T22:36:26.826Z,99396.50
2022-08-17T22:38:58.430Z,99406.13
2022-08-17T22:41:40.426Z,99414.00
2022-08-17T22:44:31.596Z,99412.28
2022-08-17T22:47:19.546Z,99413.50
2022-08-17T22:49:58.742Z,99418.38
2022-08-17T22:53:00.655Z,99429.34
2022-08-17T22:55:48.119Z,99434.63
2022-08-17T22:58:41.858Z,99439.25
2022-08-17T23:01:27.634Z,99448.19
2022-08-17T23:03:57.290Z,99454.38
2022-08-17T23:06:24.276Z,99471.38
2022-08-17T23:08:54.956Z,99480.25
2022-08-17T23:11:36.944Z,99488.19
2022-08-17T23:14:15.661Z,99494.03
2022-08-17T23:16:42.564Z,99502.91
2022-08-17T23:19:10.738Z,99511.03
2022-08-17T23:21:37.833Z,99512.91
2022-08-17T23:24:05.840Z,99514.19
2022-08-17T23:26:37.841Z,99530.84
2022-08-17T23:29:08.853Z,99520.00
2022-08-17T23:31:36.852Z,99528.78
2022-08-17T23:34:04.818Z,99535.91
2022-08-17T23:36:34.707Z,99535.69
2022-08-17T23:39:01.441Z,99532.16
2022-08-17T23:41:31.860Z,99525.44
2022-08-17T23:43:59.604Z,99523.19
2022-08-17T23:46:26.435Z,99515.38
2022-08-17T23:48:53.943Z,99510.19
2022-08-17T23:51:23.970Z,99516.88
2022-08-17T23:53:54.321Z,99510.84
2022-08-17T23:56:27.400Z,99504.16
2022-08-17T23:58:55.276Z,99506.66
